Condor Express — 9V5373 — position and weather

sailwx.info

Track history (hours):
 
Tides and Currents Weather Stations Pressure Air Temp Water Temp Dewpoint Dewpoint Depression Visibility Wind Speed Wind Dir Waves Ship Positions

Condor Express

Operator: Condor Marine Services

Last reported at 2020-Sep-19 07:30 UTC. Time now 2020-Sep-19 09:03 UTC.
Position N 56°59' E 017°26'.

Length 235 m; draft 7.4 m.

Type: Cargo ship. MMSI: 563014500.

Date/timePositionNaut miles runAvg speedWind from/ knotsBaromVisibWave heightAir tempDewpointWater temp
2020-Sep-19 07:30N 56°59' E 017°26'1212.0
2020-Sep-19 06:32N 56°48' E 017°18'1911.7
2020-Sep-19 04:55N 56°30' E 017°08'511.9
2020-Sep-19 04:30N 56°26' E 017°05'2311.7
2020-Sep-19 02:30N 56°04' E 016°47'1211.9
2020-Sep-19 01:30N 55°58' E 016°30'2512.3
2020-Sep-18 23:30N 55°45' E 015°52'1211.8
2020-Sep-18 22:30N 55°39' E 015°34'3011.8
2020-Sep-18 20:00N 55°26' E 014°47'1211.8
2020-Sep-18 19:00N 55°17' E 014°32'1212.0
2020-Sep-18 18:00N 55°10' E 014°16'65 8.6
2020-Sep-18 10:30N 55°45' E 012°41'25 8.4
2020-Sep-18 07:30N 56°09' E 012°26'4 8.1
2020-Sep-18 07:00N 56°12' E 012°23'20 9.8
2020-Sep-18 05:00N 56°32' E 012°15'2512.2
2020-Sep-18 02:59N 56°55' E 012°03'1812.2
2020-Sep-18 01:30N 57°12' E 011°53'611.6
2020-Sep-18 01:00N 57°17' E 011°46'19 3.4
2020-Sep-17 19:28N 57°36' E 011°41'0 0.0
2020-Sep-17 16:58N 57°36' E 011°41'0 0.0
2020-Sep-17 15:28N 57°36' E 011°41'0 0.0
2020-Sep-17 14:28N 57°36' E 011°41'7 2.7
2020-Sep-17 12:00N 57°36' E 011°29'4210.4
2020-Sep-17 08:00N 57°48' E 010°14'510.7
2020-Sep-17 07:29N 57°48' E 010°04'510.9
2020-Sep-17 07:00N 57°48' E 009°54'610.9
2020-Sep-17 06:30N 57°48' E 009°44'3210.5
2020-Sep-17 03:30N 57°32' E 008°52'510.1
2020-Sep-17 03:00N 57°29' E 008°45'1510.1
2020-Sep-17 01:30N 57°21' E 008°21'510.1
2020-Sep-17 01:00N 57°18' E 008°14'510.4
2020-Sep-17 00:29N 57°15' E 008°06'510.7
2020-Sep-17 00:00N 57°12' E 007°58'3610.4
2020-Sep-16 20:30N 56°46' E 007°12'23 9.3
2020-Sep-16 18:01N 56°26' E 006°51'100 8.9
2020-Sep-16 06:50N 54°59' E 005°22'2111.6
2020-Sep-16 05:00N 54°41' E 005°04'611.6
2020-Sep-16 04:30N 54°36' E 004°59'611.5
2020-Sep-16 04:00N 54°30' E 004°56'1010.5
2020-Sep-16 03:00N 54°22' E 004°46'3210.6
2020-Sep-16 00:00N 53°52' E 004°30'510.6
2020-Sep-15 23:30N 53°48' E 004°24'1110.7
2020-Sep-15 22:30N 53°41' E 004°10'2110.5
2020-Sep-15 20:30N 53°27' E 003°44'7411.4
2020-Sep-15 14:00N 52°20' E 002°51'713.3
2020-Sep-15 13:30N 52°14' E 002°45'1912.8
2020-Sep-15 12:00N 51°55' E 002°41'3012.2
2020-Sep-15 09:30N 51°29' E 002°15'2110.7
2020-Sep-15 07:30N 51°11' E 001°57'19 9.5
2020-Sep-15 05:30N 50°59' E 001°34'22 8.8
2020-Sep-15 03:00N 50°39' E 001°18'1010.3
2020-Sep-15 02:00N 50°34' E 001°04'5310.6
2020-Sep-14 21:00N 50°16' W 000°14'1211.8
2020-Sep-14 20:00N 50°13' W 000°32'7213.0
2020-Sep-14 14:30N 49°55' W 002°20'2110.7
2020-Sep-14 12:30N 49°48' W 002°51'2610.5
2020-Sep-14 10:00N 49°35' W 003°27'3810.8
2020-Sep-14 06:30N 49°16' W 004°17'1110.9
2020-Sep-14 05:30N 49°11' W 004°31'611.2
2020-Sep-14 05:00N 49°08' W 004°39'1111.5
2020-Sep-14 04:00N 49°02' W 004°54'712.0
2020-Sep-14 03:24N 48°58' W 005°04'512.2
2020-Sep-14 03:00N 48°56' W 005°10'612.0
2020-Sep-14 02:29N 48°53' W 005°18'1811.8
2020-Sep-14 01:00N 48°42' W 005°39'3012.2
2020-Sep-13 22:30N 48°15' W 006°01'612.4
2020-Sep-13 22:00N 48°10' W 006°05'612.4
2020-Sep-13 21:30N 48°04' W 006°10'6411.7
2020-Sep-13 16:00N 47°07' W 006°53'611.5
2020-Sep-13 15:30N 47°02' W 006°57'1211.7
2020-Sep-13 14:30N 46°52' W 007°05'1211.6
2020-Sep-13 13:30N 46°42' W 007°13'5211.6
2020-Sep-13 09:00N 45°56' W 007°49'611.6
2020-Sep-13 08:30N 45°51' W 007°53'4011.4
2020-Sep-13 04:59N 45°15' W 008°18'711.0
2020-Sep-13 04:20N 45°09' W 008°23'511.1
2020-Sep-13 03:53N 45°04' W 008°26'9010.7
2020-Sep-12 19:30N 43°45' W 009°25'16110.8
2020-Sep-12 04:39N 41°05' W 009°49'211.3
2020-Sep-12 04:30N 41°03' W 009°49'5211.5
2020-Sep-11 23:59N 40°11' W 009°51'1811.1
2020-Sep-11 22:21N 39°53' W 009°51'3711.1
2020-Sep-11 19:00N 39°16' W 009°52'9612.0
2020-Sep-11 11:00N 37°41' W 009°33'2311.6
2020-Sep-11 09:00N 37°19' W 009°27'611.7
2020-Sep-11 08:30N 37°13' W 009°25'611.7
2020-Sep-11 08:00N 37°07' W 009°23'1812.1
2020-Sep-11 06:30N 36°50' W 009°15'611.4
2020-Sep-11 06:00N 36°47' W 009°10'2311.4
2020-Sep-11 04:00N 36°41' W 008°42'611.7
2020-Sep-11 03:30N 36°41' W 008°35'4811.5
2020-Sep-10 23:20N 36°44' W 007°35'2011.2
2020-Sep-10 21:35N 36°47' W 007°11'111.5
2020-Sep-10 21:30N 36°48' W 007°10'811.5
2020-Sep-10 20:51N 36°49' W 007°01'8 5.6
2020-Sep-10 19:27N 36°51' W 006°51'0 0.0
2020-Sep-10 14:18N 36°51' W 006°52'0 0.0
2020-Sep-10 01:30N 36°51' W 006°52'  
Track history (hours):
 
Tides and Currents Weather Stations Pressure Air Temp Water Temp Dewpoint Dewpoint Depression Visibility Wind Speed Wind Dir Waves Ship Positions

Condor Express

Operator: Condor Marine Services

Last reported at 2020-Sep-19 07:30 UTC. Time now 2020-Sep-19 09:03 UTC.
Position N 56°59' E 017°26'.

Length 235 m; draft 7.4 m.

Type: Cargo ship. MMSI: 563014500.

Date/timePositionNaut miles runAvg speedWind from/ knotsBaromVisibWave heightAir tempDewpointWater temp
2020-Sep-19 07:30N 56°59' E 017°26'1212.0
2020-Sep-19 06:32N 56°48' E 017°18'1911.7
2020-Sep-19 04:55N 56°30' E 017°08'511.9
2020-Sep-19 04:30N 56°26' E 017°05'2311.7
2020-Sep-19 02:30N 56°04' E 016°47'1211.9
2020-Sep-19 01:30N 55°58' E 016°30'2512.3
2020-Sep-18 23:30N 55°45' E 015°52'1211.8
2020-Sep-18 22:30N 55°39' E 015°34'3011.8
2020-Sep-18 20:00N 55°26' E 014°47'1211.8
2020-Sep-18 19:00N 55°17' E 014°32'1212.0
2020-Sep-18 18:00N 55°10' E 014°16'65 8.6
2020-Sep-18 10:30N 55°45' E 012°41'25 8.4
2020-Sep-18 07:30N 56°09' E 012°26'4 8.1
2020-Sep-18 07:00N 56°12' E 012°23'20 9.8
2020-Sep-18 05:00N 56°32' E 012°15'2512.2
2020-Sep-18 02:59N 56°55' E 012°03'1812.2
2020-Sep-18 01:30N 57°12' E 011°53'611.6
2020-Sep-18 01:00N 57°17' E 011°46'19 3.4
2020-Sep-17 19:28N 57°36' E 011°41'0 0.0
2020-Sep-17 16:58N 57°36' E 011°41'0 0.0
2020-Sep-17 15:28N 57°36' E 011°41'0 0.0
2020-Sep-17 14:28N 57°36' E 011°41'7 2.7
2020-Sep-17 12:00N 57°36' E 011°29'4210.4
2020-Sep-17 08:00N 57°48' E 010°14'510.7
2020-Sep-17 07:29N 57°48' E 010°04'510.9
2020-Sep-17 07:00N 57°48' E 009°54'610.9
2020-Sep-17 06:30N 57°48' E 009°44'3210.5
2020-Sep-17 03:30N 57°32' E 008°52'510.1
2020-Sep-17 03:00N 57°29' E 008°45'1510.1
2020-Sep-17 01:30N 57°21' E 008°21'510.1
2020-Sep-17 01:00N 57°18' E 008°14'510.4
2020-Sep-17 00:29N 57°15' E 008°06'510.7
2020-Sep-17 00:00N 57°12' E 007°58'3610.4
2020-Sep-16 20:30N 56°46' E 007°12'23 9.3
2020-Sep-16 18:01N 56°26' E 006°51'100 8.9
2020-Sep-16 06:50N 54°59' E 005°22'2111.6
2020-Sep-16 05:00N 54°41' E 005°04'611.6
2020-Sep-16 04:30N 54°36' E 004°59'611.5
2020-Sep-16 04:00N 54°30' E 004°56'1010.5
2020-Sep-16 03:00N 54°22' E 004°46'3210.6
2020-Sep-16 00:00N 53°52' E 004°30'510.6
2020-Sep-15 23:30N 53°48' E 004°24'1110.7
2020-Sep-15 22:30N 53°41' E 004°10'2110.5
2020-Sep-15 20:30N 53°27' E 003°44'7411.4
2020-Sep-15 14:00N 52°20' E 002°51'713.3
2020-Sep-15 13:30N 52°14' E 002°45'1912.8
2020-Sep-15 12:00N 51°55' E 002°41'3012.2
2020-Sep-15 09:30N 51°29' E 002°15'2110.7
2020-Sep-15 07:30N 51°11' E 001°57'19 9.5
2020-Sep-15 05:30N 50°59' E 001°34'22 8.8
2020-Sep-15 03:00N 50°39' E 001°18'1010.3
2020-Sep-15 02:00N 50°34' E 001°04'5310.6
2020-Sep-14 21:00N 50°16' W 000°14'1211.8
2020-Sep-14 20:00N 50°13' W 000°32'7213.0
2020-Sep-14 14:30N 49°55' W 002°20'2110.7
2020-Sep-14 12:30N 49°48' W 002°51'2610.5
2020-Sep-14 10:00N 49°35' W 003°27'3810.8
2020-Sep-14 06:30N 49°16' W 004°17'1110.9
2020-Sep-14 05:30N 49°11' W 004°31'611.2
2020-Sep-14 05:00N 49°08' W 004°39'1111.5
2020-Sep-14 04:00N 49°02' W 004°54'712.0
2020-Sep-14 03:24N 48°58' W 005°04'512.2
2020-Sep-14 03:00N 48°56' W 005°10'612.0
2020-Sep-14 02:29N 48°53' W 005°18'1811.8
2020-Sep-14 01:00N 48°42' W 005°39'3012.2
2020-Sep-13 22:30N 48°15' W 006°01'612.4
2020-Sep-13 22:00N 48°10' W 006°05'612.4
2020-Sep-13 21:30N 48°04' W 006°10'6411.7
2020-Sep-13 16:00N 47°07' W 006°53'611.5
2020-Sep-13 15:30N 47°02' W 006°57'1211.7
2020-Sep-13 14:30N 46°52' W 007°05'1211.6
2020-Sep-13 13:30N 46°42' W 007°13'5211.6
2020-Sep-13 09:00N 45°56' W 007°49'611.6
2020-Sep-13 08:30N 45°51' W 007°53'4011.4
2020-Sep-13 04:59N 45°15' W 008°18'711.0
2020-Sep-13 04:20N 45°09' W 008°23'511.1
2020-Sep-13 03:53N 45°04' W 008°26'9010.7
2020-Sep-12 19:30N 43°45' W 009°25'16110.8
2020-Sep-12 04:39N 41°05' W 009°49'211.3
2020-Sep-12 04:30N 41°03' W 009°49'5211.5
2020-Sep-11 23:59N 40°11' W 009°51'1811.1
2020-Sep-11 22:21N 39°53' W 009°51'3711.1
2020-Sep-11 19:00N 39°16' W 009°52'9612.0
2020-Sep-11 11:00N 37°41' W 009°33'2311.6
2020-Sep-11 09:00N 37°19' W 009°27'611.7
2020-Sep-11 08:30N 37°13' W 009°25'611.7
2020-Sep-11 08:00N 37°07' W 009°23'1812.1
2020-Sep-11 06:30N 36°50' W 009°15'611.4
2020-Sep-11 06:00N 36°47' W 009°10'2311.4
2020-Sep-11 04:00N 36°41' W 008°42'611.7
2020-Sep-11 03:30N 36°41' W 008°35'4811.5
2020-Sep-10 23:20N 36°44' W 007°35'2011.2
2020-Sep-10 21:35N 36°47' W 007°11'111.5
2020-Sep-10 21:30N 36°48' W 007°10'811.5
2020-Sep-10 20:51N 36°49' W 007°01'8 5.6
2020-Sep-10 19:27N 36°51' W 006°51'0 0.0
2020-Sep-10 14:18N 36°51' W 006°52'0 0.0
2020-Sep-10 01:30N 36°51' W 006°52'  

Dump ship's entire track history